Time;durP1;ratioP1;P1;durP2;ratioP2;P2;SDS_P1;SDS_P2;PMS_P1;PMS_P2;Temp;Humidity;BMP_temperature;BMP_pressure;BME280_temperature;BME280_humidity;BME280_pressure;Samples;Min_cycle;Max_cycle;Signal;HPM_P1;HPM_P2
2023/07/11 00:00:43;;;;;;;9.65;2.92;;;;;;;18.53;76.28;101536.22;4988914;28;20441;-68
2023/07/11 00:03:10;;;;;;;5.13;3.35;;;;;;;18.46;75.33;101535.91;4989318;28;20112;-69
2023/07/11 00:05:36;;;;;;;4.90;2.75;;;;;;;18.42;76.82;101533.59;4988938;28;20097;-68
2023/07/11 00:08:01;;;;;;;6.70;3.13;;;;;;;18.36;76.76;101535.91;4989306;28;20482;-68
2023/07/11 00:10:27;;;;;;;8.23;3.22;;;;;;;18.31;77.12;101532.72;4989223;28;20038;-68
2023/07/11 00:12:52;;;;;;;4.07;3.13;;;;;;;18.29;77.09;101526.50;5006390;28;20611;-68
2023/07/11 00:15:18;;;;;;;11.75;3.13;;;;;;;18.25;76.63;101524.19;4992297;28;20027;-68
2023/07/11 00:17:46;;;;;;;6.72;3.15;;;;;;;18.20;76.48;101521.84;4992873;28;20394;-68
2023/07/11 00:20:11;;;;;;;6.57;3.13;;;;;;;18.18;75.92;101523.00;5007121;28;20367;-69
2023/07/11 00:22:37;;;;;;;10.00;3.83;;;;;;;18.10;76.76;101526.50;5007563;28;20112;-68
2023/07/11 00:25:04;;;;;;;9.30;4.20;;;;;;;18.03;76.16;101528.94;4992271;28;20044;-68
2023/07/11 00:27:30;;;;;;;4.55;3.65;;;;;;;18.00;76.31;101520.06;4992459;28;20042;-68
2023/07/11 00:29:57;;;;;;;10.07;3.63;;;;;;;17.95;76.25;101520.53;5007213;28;20128;-68
2023/07/11 00:32:22;;;;;;;6.45;3.63;;;;;;;17.94;76.87;101523.41;4992534;28;20093;-68
2023/07/11 00:34:48;;;;;;;6.32;3.45;;;;;;;17.89;76.42;101509.22;5006932;28;20035;-69
2023/07/11 00:37:14;;;;;;;4.35;3.50;;;;;;;17.85;76.29;101514.13;5006788;28;20716;-68
2023/07/11 00:39:40;;;;;;;8.70;3.33;;;;;;;17.83;75.95;101505.16;5006716;28;20058;-68
2023/07/11 00:42:07;;;;;;;5.63;3.70;;;;;;;17.80;76.38;101516.44;4992164;28;20129;-69
2023/07/11 00:45:25;;;;;;;7.50;3.65;;;;;;;17.80;74.74;101511.78;4991965;28;20101;-68
2023/07/11 00:47:50;;;;;;;14.55;4.05;;;;;;;17.72;76.57;101505.22;4984328;28;20054;-69
2023/07/11 00:50:16;;;;;;;6.35;3.85;;;;;;;17.69;76.75;101509.13;4992198;28;20403;-68
2023/07/11 00:52:41;;;;;;;9.20;3.53;;;;;;;17.64;77.02;101511.44;4992066;28;20109;-69
2023/07/11 00:55:11;;;;;;;5.13;3.08;;;;;;;17.59;76.77;101513.75;4991548;28;20113;-68
2023/07/11 00:57:40;;;;;;;7.60;3.20;;;;;;;17.57;77.03;101513.88;5006304;28;20042;-68
2023/07/11 01:00:06;;;;;;;7.45;3.58;;;;;;;17.53;77.61;101523.44;4990503;28;20045;-68
2023/07/11 01:02:33;;;;;;;6.55;3.38;;;;;;;17.48;77.18;101516.59;4991862;28;20502;-69
2023/07/11 01:05:00;;;;;;;7.80;3.58;;;;;;;17.45;77.13;101522.41;4991567;28;20034;-69
2023/07/11 01:07:31;;;;;;;12.32;4.13;;;;;;;17.42;77.21;101523.53;4989859;28;20073;-69
2023/07/11 01:09:56;;;;;;;7.60;3.72;;;;;;;17.41;77.63;101516.28;4991375;28;20038;-69
2023/07/11 01:12:23;;;;;;;6.97;3.45;;;;;;;17.39;77.35;101531.19;4990218;28;20540;-68
2023/07/11 01:14:50;;;;;;;7.38;3.70;;;;;;;17.34;77.61;101521.47;4991772;28;20154;-68
2023/07/11 01:17:29;;;;;;;6.63;3.28;;;;;;;17.28;77.49;101519.28;4991599;28;20073;-68
2023/07/11 01:19:56;;;;;;;8.43;3.70;;;;;;;17.18;78.69;101517.50;4991425;28;20412;-70
2023/07/11 01:22:23;;;;;;;6.78;4.07;;;;;;;17.17;79.20;101515.75;4991779;28;20038;-68
2023/07/11 01:24:50;;;;;;;6.28;3.83;;;;;;;17.14;78.43;101510.53;4990093;28;20026;-68
2023/07/11 01:27:17;;;;;;;9.48;4.43;;;;;;;17.11;78.70;101506.16;4991679;28;20359;-68
2023/07/11 01:29:42;;;;;;;5.85;4.57;;;;;;;17.05;79.15;101506.72;4991610;28;20601;-68
2023/07/11 01:32:09;;;;;;;7.50;3.90;;;;;;;17.02;79.28;101507.88;4991559;28;20113;-68
2023/07/11 01:34:34;;;;;;;9.35;3.58;;;;;;;17.01;78.12;101508.88;4990938;28;20374;-69
2023/07/11 01:37:00;;;;;;;7.30;3.42;;;;;;;16.97;78.00;101499.19;5005613;28;20037;-68
2023/07/11 01:39:25;;;;;;;13.55;4.25;;;;;;;16.93;79.20;101492.22;4990802;28;20056;-69
2023/07/11 01:41:51;;;;;;;5.47;3.60;;;;;;;16.90;79.29;101488.84;4991771;28;20471;-68
2023/07/11 01:44:16;;;;;;;7.50;4.03;;;;;;;16.88;79.04;101486.25;4990842;28;20039;-69
2023/07/11 01:46:42;;;;;;;8.57;4.25;;;;;;;16.86;78.56;101476.38;4990548;28;20030;-68
2023/07/11 01:49:07;;;;;;;6.72;4.50;;;;;;;16.82;79.56;101476.66;4996499;28;20042;-68
2023/07/11 01:51:33;;;;;;;7.95;4.50;;;;;;;16.81;79.00;101476.78;4990635;28;20026;-68
2023/07/11 01:53:58;;;;;;;4.65;4.13;;;;;;;16.79;78.54;101470.56;5005493;28;20169;-69
2023/07/11 01:56:23;;;;;;;7.28;3.50;;;;;;;16.77;78.74;101470.69;4991235;28;20018;-68
2023/07/11 01:58:49;;;;;;;9.02;4.38;;;;;;;16.74;79.14;101467.34;5005642;28;20030;-69
2023/07/11 02:01:14;;;;;;;6.57;4.28;;;;;;;16.71;78.54;101471.22;4990912;28;20042;-68
2023/07/11 02:03:40;;;;;;;9.88;4.40;;;;;;;16.68;79.71;101465.97;4990763;28;20061;-68
2023/07/11 02:06:05;;;;;;;9.93;4.32;;;;;;;16.58;80.48;101457.69;4988952;28;20505;-68
2023/07/11 02:08:30;;;;;;;5.75;4.03;;;;;;;16.54;80.44;101456.19;5005236;28;20474;-68
2023/07/11 02:10:56;;;;;;;7.32;4.35;;;;;;;16.53;80.02;101450.84;5005706;28;20246;-68
2023/07/11 02:13:21;;;;;;;8.20;4.10;;;;;;;16.49;80.57;101454.88;5005427;28;20074;-68
2023/07/11 02:15:47;;;;;;;8.50;4.70;;;;;;;16.46;80.68;101450.53;4990613;28;20458;-69
2023/07/11 02:18:12;;;;;;;8.15;4.53;;;;;;;16.43;80.17;101448.03;4990616;28;20026;-68
2023/07/11 02:20:43;;;;;;;8.00;4.32;;;;;;;16.41;80.52;101441.81;4989968;28;20042;-68
2023/07/11 02:23:09;;;;;;;4.82;3.70;;;;;;;16.39;80.54;101434.72;4990280;28;20045;-68
2023/07/11 02:25:36;;;;;;;6.35;4.03;;;;;;;16.37;80.44;101437.59;4989988;28;20142;-68
2023/07/11 02:28:01;;;;;;;7.43;4.28;;;;;;;16.35;81.15;101433.25;4990254;28;20046;-68
2023/07/11 02:30:26;;;;;;;7.00;4.07;;;;;;;16.29;80.76;101419.03;5005091;28;20056;-68
2023/07/11 02:32:52;;;;;;;7.00;3.70;;;;;;;16.28;81.32;101419.19;4990437;28;20071;-68
2023/07/11 02:35:17;;;;;;;5.20;3.75;;;;;;;16.27;81.21;101420.16;5004304;28;20121;-68
2023/07/11 02:37:43;;;;;;;11.45;4.32;;;;;;;16.26;81.40;101421.19;4989747;28;20038;-68
2023/07/11 02:40:08;;;;;;;6.13;3.50;;;;;;;16.25;81.04;101419.44;4989593;28;20124;-68
2023/07/11 02:42:34;;;;;;;6.32;3.47;;;;;;;16.23;81.06;101416.84;4989575;28;20110;-68
2023/07/11 02:44:59;;;;;;;5.25;3.90;;;;;;;16.20;81.58;101414.34;4990141;28;20039;-68
2023/07/11 02:47:24;;;;;;;7.05;3.70;;;;;;;16.17;82.08;101417.34;4990045;28;20166;-69
2023/07/11 02:49:50;;;;;;;4.68;3.75;;;;;;;16.14;82.29;101405.78;5023571;28;20398;-68
2023/07/11 02:52:15;;;;;;;7.05;4.13;;;;;;;16.12;82.25;101403.16;5009308;28;20073;-68
2023/07/11 02:54:40;;;;;;;8.70;3.92;;;;;;;16.08;82.10;101399.81;5008989;28;20049;-68
2023/07/11 02:57:08;;;;;;;4.97;3.88;;;;;;;16.08;82.42;101393.44;4992830;28;20038;-68
2023/07/11 02:59:33;;;;;;;7.85;3.78;;;;;;;16.07;82.44;101395.31;4989663;28;20121;-69
2023/07/11 03:01:59;;;;;;;6.85;3.78;;;;;;;16.06;82.02;101389.97;4989735;28;20449;-68
2023/07/11 03:04:26;;;;;;;4.70;3.78;;;;;;;16.04;82.42;101392.88;5004745;28;20550;-68
2023/07/11 03:06:56;;;;;;;4.97;4.35;;;;;;;15.97;83.63;101388.91;4989601;28;20053;-68
2023/07/11 03:09:22;;;;;;;7.07;4.47;;;;;;;15.94;83.47;101382.81;4989758;28;20042;-69
2023/07/11 03:11:47;;;;;;;6.57;3.92;;;;;;;15.94;82.49;101383.66;4992995;28;20044;-68
2023/07/11 03:14:13;;;;;;;7.25;4.78;;;;;;;15.94;83.43;101378.19;4994700;28;20035;-69
2023/07/11 03:16:39;;;;;;;5.18;4.03;;;;;;;15.91;83.28;101375.72;4989290;28;20038;-68
2023/07/11 03:19:04;;;;;;;4.93;3.95;;;;;;;15.90;83.02;101365.75;5003960;28;20038;-68
2023/07/11 03:21:30;;;;;;;6.70;4.30;;;;;;;15.89;83.56;101360.38;4989162;28;20030;-68
2023/07/11 03:23:55;;;;;;;5.85;4.07;;;;;;;15.86;83.49;101360.66;4989107;28;20050;-69
2023/07/11 03:26:20;;;;;;;6.25;4.00;;;;;;;15.87;83.38;101355.03;5004385;28;20038;-68
2023/07/11 03:28:46;;;;;;;9.18;4.28;;;;;;;15.88;83.39;101361.38;4989194;28;20084;-68
2023/07/11 03:31:11;;;;;;;6.38;4.40;;;;;;;15.87;83.45;101360.53;4989278;28;20046;-68
2023/07/11 03:33:36;;;;;;;6.05;4.40;;;;;;;15.84;83.92;101354.41;4989578;28;20029;-69
2023/07/11 03:36:02;;;;;;;6.57;4.88;;;;;;;15.86;83.98;101352.44;4989005;28;20042;-69
2023/07/11 03:38:27;;;;;;;6.50;4.65;;;;;;;15.90;82.89;101353.88;4987821;28;20050;-69
2023/07/11 03:40:53;;;;;;;7.45;4.57;;;;;;;15.90;83.27;101346.53;4990263;28;20034;-69
2023/07/11 03:43:19;;;;;;;6.82;4.80;;;;;;;15.90;83.08;101356.63;4988894;28;20035;-69
2023/07/11 03:45:48;;;;;;;9.32;5.03;;;;;;;15.86;83.62;101352.44;4988874;28;20108;-68
2023/07/11 03:48:17;;;;;;;6.32;4.45;;;;;;;15.86;84.27;101361.53;4997506;28;20091;-68
2023/07/11 03:50:42;;;;;;;5.35;4.55;;;;;;;15.85;84.44;101367.13;5012485;28;20124;-68
2023/07/11 03:53:08;;;;;;;8.45;4.28;;;;;;;15.87;84.24;101356.91;5012490;28;20080;-68
2023/07/11 03:55:33;;;;;;;5.28;4.30;;;;;;;15.86;83.62;101345.06;5012430;28;20041;-69
2023/07/11 03:57:59;;;;;;;8.48;4.63;;;;;;;15.85;83.68;101353.41;4996690;28;20473;-69
2023/07/11 04:00:25;;;;;;;6.65;4.85;;;;;;;15.86;83.45;101350.56;4992886;28;20050;-69
2023/07/11 04:02:51;;;;;;;6.30;4.88;;;;;;;15.86;84.28;101347.81;4993335;28;20039;-69
2023/07/11 04:05:17;;;;;;;7.50;5.22;;;;;;;15.86;84.76;101347.81;4992541;28;20038;-68
2023/07/11 04:07:42;;;;;;;9.52;5.28;;;;;;;15.88;84.70;101337.56;4993129;28;20454;-68
2023/07/11 04:10:08;;;;;;;9.85;4.65;;;;;;;15.93;83.61;101339.91;4992412;28;20443;-69
2023/07/11 04:12:34;;;;;;;10.23;5.68;;;;;;;15.94;83.60;101342.50;4992792;28;20035;-69
2023/07/11 04:14:59;;;;;;;13.07;6.72;;;;;;;15.96;85.70;101336.91;4992597;28;20394;-68
2023/07/11 04:17:25;;;;;;;6.20;5.60;;;;;;;16.00;84.88;101342.00;4992622;28;20498;-70
2023/07/11 04:19:51;;;;;;;7.93;5.45;;;;;;;16.01;84.51;101335.50;4992715;28;20176;-69
2023/07/11 04:22:16;;;;;;;9.85;5.82;;;;;;;16.04;84.52;101339.81;4992177;28;20129;-69
2023/07/11 04:24:42;;;;;;;10.18;5.43;;;;;;;16.03;85.41;101325.22;4992203;28;20113;-68
2023/07/11 04:27:08;;;;;;;17.15;6.07;;;;;;;16.07;85.41;101329.44;4993030;28;20038;-68
2023/07/11 04:29:33;;;;;;;11.32;5.88;;;;;;;16.11;85.29;101329.19;4992256;28;20037;-69
2023/07/11 04:31:59;;;;;;;7.47;5.93;;;;;;;16.14;85.77;101327.06;4992884;28;20522;-68
2023/07/11 04:34:24;;;;;;;11.90;5.90;;;;;;;16.16;85.84;101324.16;5007517;28;20061;-69
2023/07/11 04:36:49;;;;;;;11.30;5.95;;;;;;;16.20;85.43;101312.78;4992471;28;20117;-68
2023/07/11 04:39:15;;;;;;;14.93;6.43;;;;;;;16.24;85.66;101318.88;4992284;28;20089;-68
2023/07/11 04:41:41;;;;;;;13.32;6.28;;;;;;;16.27;86.59;101313.97;4992200;28;20025;-69
2023/07/11 04:44:06;;;;;;;5.90;5.25;;;;;;;16.32;84.86;101303.47;4991929;28;20109;-69
2023/07/11 04:46:31;;;;;;;9.45;5.43;;;;;;;16.38;85.27;101304.78;4991913;28;20078;-68
2023/07/11 04:48:57;;;;;;;8.20;5.25;;;;;;;16.44;84.99;101303.34;5006967;28;20034;-68
2023/07/11 04:51:22;;;;;;;7.53;5.95;;;;;;;16.48;85.35;101305.69;4992116;28;20045;-69
2023/07/11 04:53:47;;;;;;;8.98;5.82;;;;;;;16.53;85.32;101303.38;4992172;28;20049;-68
2023/07/11 04:56:13;;;;;;;10.07;6.10;;;;;;;16.57;84.94;101310.34;5006558;28;20049;-68
2023/07/11 04:58:38;;;;;;;8.27;5.47;;;;;;;16.59;85.33;101299.22;4991988;28;20039;-69
2023/07/11 05:01:22;;;;;;;8.43;5.85;;;;;;;16.66;83.95;101292.16;4991843;28;20038;-68
2023/07/11 05:03:49;;;;;;;8.40;5.78;;;;;;;16.71;86.14;101292.63;4991438;28;20058;-69
2023/07/11 05:06:14;;;;;;;8.07;5.90;;;;;;;16.79;85.70;101290.06;4991815;28;20411;-68
2023/07/11 05:08:40;;;;;;;8.50;5.15;;;;;;;16.85;84.01;101296.88;4991997;28;20116;-68
2023/07/11 05:11:07;;;;;;;8.82;4.93;;;;;;;16.91;84.30;101281.69;4991459;28;20038;-68
2023/07/11 05:13:33;;;;;;;6.82;4.72;;;;;;;17.05;83.96;101279.41;4991350;28;20057;-68
2023/07/11 05:16:13;;;;;;;12.52;4.43;;;;;;;17.16;83.36;101278.44;5006328;28;20438;-68
2023/07/11 05:18:40;;;;;;;7.75;4.53;;;;;;;17.24;83.18;101273.06;4989711;28;20073;-68
2023/07/11 05:21:07;;;;;;;7.40;4.72;;;;;;;17.34;83.23;101270.31;5006240;28;20038;-68
2023/07/11 05:23:33;;;;;;;5.70;4.32;;;;;;;17.39;82.00;101270.72;4991204;28;20398;-68
2023/07/11 05:25:58;;;;;;;7.47;4.85;;;;;;;17.43;81.82;101266.69;4989646;28;20026;-69
2023/07/11 05:28:27;;;;;;;7.40;4.55;;;;;;;17.51;82.05;101264.09;4991739;28;20048;-68
2023/07/11 05:30:54;;;;;;;7.32;4.55;;;;;;;17.58;82.34;101267.13;4991752;28;20062;-69
2023/07/11 05:33:20;;;;;;;10.23;3.95;;;;;;;17.61;81.82;101266.81;4989971;28;20035;-68
2023/07/11 05:35:57;;;;;;;4.57;4.18;;;;;;;17.67;80.45;101260.72;4990871;28;20550;-68
2023/07/11 05:38:23;;;;;;;7.78;4.28;;;;;;;17.72;81.37;101255.66;4990969;28;20120;-69
2023/07/11 05:40:49;;;;;;;9.07;4.35;;;;;;;17.78;80.79;101259.75;4991389;28;20038;-69
2023/07/11 05:43:14;;;;;;;6.50;3.67;;;;;;;17.99;79.13;101259.53;4991124;28;20125;-68
2023/07/11 05:45:43;;;;;;;7.35;3.80;;;;;;;18.11;78.68;101258.34;4991100;28;20060;-68
2023/07/11 05:48:09;;;;;;;9.55;4.10;;;;;;;18.27;77.54;101252.19;4995843;28;20037;-68
2023/07/11 05:50:34;;;;;;;6.72;3.80;;;;;;;18.35;77.38;101255.06;5010299;28;20548;-68
2023/07/11 05:52:59;;;;;;;4.20;3.38;;;;;;;18.40;77.51;101249.97;5010228;28;20110;-69
2023/07/11 05:55:25;;;;;;;7.25;3.03;;;;;;;18.46;76.78;101248.47;5009708;28;20034;-68
2023/07/11 05:57:50;;;;;;;6.68;3.25;;;;;;;18.46;77.63;101242.97;4991811;28;20042;-68
2023/07/11 06:00:16;;;;;;;7.20;3.20;;;;;;;18.57;75.84;101238.13;4990605;28;20097;-69
2023/07/11 06:02:42;;;;;;;6.82;3.10;;;;;;;18.65;74.85;101233.72;4999533;28;20022;-68
2023/07/11 06:05:08;;;;;;;10.80;3.30;;;;;;;18.78;75.04;101242.53;4990550;28;20453;-68
2023/07/11 06:07:34;;;;;;;7.70;3.25;;;;;;;18.88;74.32;101243.34;4990872;28;20042;-68
2023/07/11 06:10:00;;;;;;;14.63;3.35;;;;;;;18.96;74.41;101237.91;4989797;28;20042;-69
2023/07/11 06:12:25;;;;;;;5.65;3.25;;;;;;;19.03;74.64;101238.19;4990791;28;20047;-69
2023/07/11 06:14:51;;;;;;;6.30;3.22;;;;;;;19.09;74.15;101232.88;4990527;28;20066;-68
2023/07/11 06:17:17;;;;;;;10.85;3.58;;;;;;;19.10;74.95;101231.00;4990602;28;20423;-69
2023/07/11 06:19:43;;;;;;;10.32;2.97;;;;;;;19.11;74.69;101235.47;4990344;28;20072;-68
2023/07/11 06:22:08;;;;;;;9.07;3.72;;;;;;;19.15;73.07;101225.88;5005050;28;20367;-69
2023/07/11 06:24:33;;;;;;;9.48;3.00;;;;;;;19.24;73.66;101240.59;4989918;28;20468;-69
2023/07/11 06:26:59;;;;;;;5.63;2.88;;;;;;;19.26;73.90;101241.34;4990638;28;20117;-69
2023/07/11 06:29:28;;;;;;;8.25;3.15;;;;;;;19.29;73.39;101227.22;4990453;28;20035;-68
2023/07/11 06:31:53;;;;;;;7.20;3.75;;;;;;;19.36;73.26;101225.56;4990566;28;20046;-69
2023/07/11 06:34:18;;;;;;;16.95;3.28;;;;;;;19.42;73.11;101227.69;4989843;28;20096;-68
2023/07/11 06:36:44;;;;;;;5.53;3.25;;;;;;;19.50;73.64;101230.50;4989987;28;20442;-68
2023/07/11 06:39:09;;;;;;;6.53;3.17;;;;;;;19.59;72.49;101224.03;4989725;28;20462;-68
2023/07/11 06:41:35;;;;;;;5.40;3.25;;;;;;;19.67;73.19;101231.53;4989624;28;20045;-69
2023/07/11 06:44:00;;;;;;;9.98;3.17;;;;;;;19.71;71.63;101221.03;4989895;28;20081;-68
2023/07/11 06:46:25;;;;;;;5.18;2.90;;;;;;;19.79;72.67;101229.38;4990256;28;20030;-69
2023/07/11 06:48:51;;;;;;;5.00;2.63;;;;;;;19.84;72.81;101227.00;4989758;28;20069;-68
2023/07/11 06:51:16;;;;;;;9.93;2.80;;;;;;;19.91;72.32;101219.81;4989374;28;20082;-68
2023/07/11 06:53:41;;;;;;;9.75;3.33;;;;;;;20.00;70.97;101217.94;4989634;28;20030;-68
2023/07/11 06:56:07;;;;;;;6.63;2.97;;;;;;;20.05;72.16;101215.53;4989533;28;20133;-69
2023/07/11 06:58:32;;;;;;;9.30;2.80;;;;;;;20.13;71.01;101215.59;4989888;28;20046;-69
2023/07/11 07:01:03;;;;;;;8.38;3.08;;;;;;;20.21;71.38;101217.56;4989621;28;20161;-68
2023/07/11 07:03:29;;;;;;;16.77;3.88;;;;;;;20.26;72.00;101223.44;4989323;28;20046;-69
2023/07/11 07:05:58;;;;;;;15.55;3.28;;;;;;;20.26;71.43;101210.50;4989379;28;20049;-69
2023/07/11 07:08:24;;;;;;;9.60;2.85;;;;;;;20.36;70.37;101218.66;5004601;28;20038;-68
2023/07/11 07:10:51;;;;;;;4.20;2.67;;;;;;;20.44;69.81;101215.94;4989725;28;20536;-68
2023/07/11 07:13:18;;;;;;;8.77;3.10;;;;;;;20.50;69.11;101207.00;4987902;28;20116;-68
2023/07/11 07:15:49;;;;;;;6.20;3.08;;;;;;;20.58;69.79;101215.31;4989386;28;20038;-68
2023/07/11 07:18:15;;;;;;;9.88;2.47;;;;;;;20.66;70.25;101221.91;4989620;28;20092;-69
2023/07/11 07:20:42;;;;;;;4.07;2.50;;;;;;;20.76;69.49;101220.75;4989181;28;20065;-68
2023/07/11 07:23:09;;;;;;;7.65;3.17;;;;;;;20.84;67.80;101214.34;4988183;28;20499;-68
2023/07/11 07:25:35;;;;;;;5.75;2.38;;;;;;;21.01;67.84;101213.38;5008496;28;20489;-69
2023/07/11 07:28:01;;;;;;;5.63;2.50;;;;;;;21.23;65.87;101213.75;4995999;28;20038;-68
2023/07/11 07:30:26;;;;;;;4.75;2.30;;;;;;;21.35;65.61;101207.72;4989152;28;20045;-68
2023/07/11 07:32:51;;;;;;;7.63;2.30;;;;;;;21.43;63.47;101206.84;5004392;28;20064;-69
2023/07/11 07:35:17;;;;;;;8.20;2.85;;;;;;;21.51;64.15;101208.78;4989104;28;20427;-68
2023/07/11 07:37:42;;;;;;;4.63;2.50;;;;;;;21.58;63.84;101207.03;4989059;28;20046;-68
2023/07/11 07:40:08;;;;;;;6.28;2.50;;;;;;;21.68;62.86;101195.75;4989414;28;20124;-68
2023/07/11 07:42:33;;;;;;;5.15;2.38;;;;;;;21.74;64.08;101198.72;4989278;28;20042;-69
2023/07/11 07:44:58;;;;;;;8.15;2.53;;;;;;;21.82;64.31;101190.41;4989179;28;20041;-68
2023/07/11 07:47:24;;;;;;;7.28;2.35;;;;;;;21.88;63.47;101186.91;4989784;28;20058;-68
2023/07/11 07:49:49;;;;;;;9.15;2.47;;;;;;;21.96;63.65;101194.31;4989092;28;20479;-69
2023/07/11 07:52:14;;;;;;;12.98;2.45;;;;;;;22.03;60.82;101189.81;5007375;28;20052;-68
2023/07/11 07:54:41;;;;;;;5.15;2.50;;;;;;;22.15;60.87;101187.56;5008430;28;20034;-69
2023/07/11 07:57:06;;;;;;;6.35;2.20;;;;;;;22.28;60.45;101185.06;5003027;28;20490;-68
2023/07/11 07:59:31;;;;;;;10.05;2.80;;;;;;;22.40;61.65;101182.78;4988951;28;20042;-69
2023/07/11 08:01:57;;;;;;;5.75;2.13;;;;;;;22.52;61.06;101188.78;4988761;28;20049;-69
2023/07/11 08:04:23;;;;;;;4.75;2.00;;;;;;;22.66;60.35;101183.34;4989240;28;20035;-68
2023/07/11 08:06:48;;;;;;;10.98;2.63;;;;;;;22.86;60.22;101182.88;4988698;28;20046;-68
2023/07/11 08:09:13;;;;;;;7.18;2.10;;;;;;;23.10;59.90;101177.19;4989265;28;20391;-69
2023/07/11 08:11:42;;;;;;;5.93;2.10;;;;;;;23.38;58.29;101173.84;4989640;28;20034;-69
2023/07/11 08:14:07;;;;;;;5.72;1.90;;;;;;;23.79;58.33;101179.91;4988888;28;20029;-68
2023/07/11 08:16:32;;;;;;;9.02;2.08;;;;;;;24.24;55.31;101168.78;5003710;28;20034;-69
2023/07/11 08:18:58;;;;;;;4.70;2.15;;;;;;;24.52;54.17;101167.03;4989187;28;20038;-68
2023/07/11 08:21:24;;;;;;;8.48;2.33;;;;;;;24.83;54.37;101177.06;4989100;28;20033;-68
2023/07/11 08:23:50;;;;;;;6.82;1.80;;;;;;;25.26;53.21;101172.41;4988950;28;20038;-68
2023/07/11 08:26:15;;;;;;;4.18;1.75;;;;;;;26.05;53.73;101165.78;4988568;28;20125;-68
2023/07/11 08:28:41;;;;;;;7.88;2.35;;;;;;;26.52;50.27;101166.91;4989188;28;20066;-68
2023/07/11 08:31:07;;;;;;;7.15;2.20;;;;;;;27.00;50.61;101170.53;4988559;28;20118;-68
2023/07/11 08:33:32;;;;;;;9.18;2.40;;;;;;;27.65;48.89;101163.28;4990678;28;20031;-68
2023/07/11 08:35:58;;;;;;;5.80;1.90;;;;;;;27.75;48.70;101167.63;4992071;28;20509;-69
2023/07/11 08:38:24;;;;;;;6.57;2.00;;;;;;;27.67;48.01;101169.53;4992197;28;20505;-69
2023/07/11 08:40:50;;;;;;;5.10;2.25;;;;;;;27.63;49.42;101159.84;4992382;28;20046;-69
2023/07/11 08:43:22;;;;;;;5.55;2.33;;;;;;;28.05;46.63;101166.06;4992324;28;20141;-69
2023/07/11 08:45:53;;;;;;;5.45;2.33;;;;;;;28.32;46.96;101157.59;4991964;28;20342;-68
2023/07/11 08:48:24;;;;;;;4.78;2.00;;;;;;;28.52;45.44;101154.75;4992113;28;20081;-69
2023/07/11 08:51:06;;;;;;;7.13;2.10;;;;;;;28.48;46.86;101155.19;4992299;28;20390;-68
2023/07/11 08:53:40;;;;;;;4.95;1.92;;;;;;;28.62;45.97;101153.19;5007077;28;20034;-68
2023/07/11 08:56:36;;;;;;;6.28;1.83;;;;;;;29.01;48.51;101148.50;4991809;28;20038;-69
2023/07/11 08:59:07;;;;;;;8.13;2.03;;;;;;;29.41;43.47;101146.22;4991727;28;20121;-68
2023/07/11 09:01:51;;;;;;;7.43;2.05;;;;;;;29.45;46.14;101146.63;4990671;28;20035;-69
2023/07/11 09:04:21;;;;;;;7.43;1.98;;;;;;;29.21;43.00;101148.34;4992342;28;20401;-68
2023/07/11 09:06:57;;;;;;;8.15;1.98;;;;;;;29.00;44.52;101145.88;4991335;28;20034;-68
2023/07/11 09:09:23;;;;;;;8.95;1.83;;;;;;;29.05;44.85;101149.75;5006725;28;20034;-69
2023/07/11 09:12:11;;;;;;;7.22;1.90;;;;;;;29.04;45.65;101144.34;4991834;28;20374;-69
2023/07/11 09:14:51;;;;;;;10.48;2.40;;;;;;;28.95;44.81;101136.22;4991601;28;20042;-69
2023/07/11 09:17:48;;;;;;;6.75;2.00;;;;;;;29.27;46.05;101140.97;4991726;28;20486;-69
2023/07/11 09:20:37;;;;;;;5.85;2.28;;;;;;;30.01;44.78;101128.00;4991172;28;20367;-69
2023/07/11 09:23:38;;;;;;;5.65;1.90;;;;;;;30.71;44.94;101139.72;4991089;28;20420;-69
2023/07/11 09:26:08;;;;;;;8.00;1.90;;;;;;;30.92;40.72;101127.97;5006386;28;20038;-69
2023/07/11 09:28:35;;;;;;;7.50;2.33;;;;;;;31.21;40.92;101134.66;4991649;28;20046;-68
2023/07/11 09:31:11;;;;;;;4.85;1.90;;;;;;;31.16;40.38;101125.22;4991088;28;20216;-69
2023/07/11 09:33:40;;;;;;;5.88;1.98;;;;;;;31.34;42.19;101121.50;4991459;28;20062;-69
2023/07/11 09:36:21;;;;;;;6.63;2.60;;;;;;;31.84;41.71;101121.06;4990890;28;20073;-68
2023/07/11 09:39:04;;;;;;;5.95;2.40;;;;;;;31.84;39.24;101126.69;4990848;28;20122;-68
2023/07/11 09:41:41;;;;;;;10.52;2.40;;;;;;;31.68;38.68;101134.75;4992063;28;20617;-68
2023/07/11 09:44:11;;;;;;;5.90;2.67;;;;;;;31.66;37.95;101122.00;4990540;28;20502;-69
2023/07/11 09:46:37;;;;;;;8.50;2.25;;;;;;;31.66;37.77;101124.81;4990476;28;20043;-69
2023/07/11 09:49:07;;;;;;;5.70;2.20;;;;;;;31.98;37.99;101126.19;5002746;28;20591;-69
2023/07/11 09:51:52;;;;;;;6.57;2.22;;;;;;;32.14;37.34;101118.97;5010336;28;20041;-69
2023/07/11 09:54:24;;;;;;;8.23;2.30;;;;;;;32.31;39.21;101118.19;4992387;28;20086;-69
2023/07/11 09:56:50;;;;;;;;;;;;;;;32.56;37.25;101121.56;4991808;28;20048;-70
2023/07/11 09:59:17;;;;;;;7.25;2.55;;;;;;;32.03;37.40;101119.81;4990897;28;19917;-69
2023/07/11 10:01:43;;;;;;;7.00;2.45;;;;;;;31.60;37.53;101123.00;4991473;28;20462;-69
2023/07/11 10:04:15;;;;;;;6.20;1.92;;;;;;;31.46;37.32;101111.97;5005935;28;20035;-69
2023/07/11 10:06:44;;;;;;;6.75;2.30;;;;;;;31.60;37.58;101114.56;4990862;28;20042;-69
2023/07/11 10:09:32;;;;;;;5.47;2.30;;;;;;;31.78;38.22;101110.75;5005368;28;20079;-69
2023/07/11 10:11:59;;;;;;;11.38;2.30;;;;;;;32.26;38.77;101113.28;4991663;28;20336;-68
2023/07/11 10:14:34;;;;;;;10.52;2.45;;;;;;;32.62;38.27;101111.25;4990402;28;20478;-68
2023/07/11 10:17:13;;;;;;;7.13;2.63;;;;;;;33.10;36.10;101110.78;4990145;28;20049;-68
2023/07/11 10:19:39;;;;;;;5.50;2.60;;;;;;;33.22;37.24;101100.31;4990286;28;20038;-69
2023/07/11 10:22:15;;;;;;;10.20;2.55;;;;;;;33.31;35.48;101106.38;4990095;28;20467;-69
2023/07/11 10:24:41;;;;;;;6.43;2.75;;;;;;;32.83;34.92;101099.28;4990038;28;20402;-69
2023/07/11 10:27:13;;;;;;;6.63;2.40;;;;;;;32.88;35.72;101095.72;4990287;28;20065;-69
2023/07/11 10:29:45;;;;;;;6.47;2.28;;;;;;;32.97;35.70;101097.91;4990140;28;20069;-68
2023/07/11 10:32:40;;;;;;;5.68;2.75;;;;;;;33.16;37.71;101098.50;4990291;28;20038;-69
2023/07/11 10:35:12;;;;;;;6.40;2.40;;;;;;;32.75;34.62;101086.44;4990091;28;20426;-68
2023/07/11 10:37:45;;;;;;;5.68;2.38;;;;;;;32.31;36.53;101090.88;4990132;28;20041;-69
2023/07/11 10:40:19;;;;;;;5.57;2.70;;;;;;;31.96;36.94;101079.69;4989740;28;20054;-68
2023/07/11 10:42:59;;;;;;;8.27;2.63;;;;;;;31.97;37.46;101087.88;4990282;28;20522;-68
2023/07/11 10:45:31;;;;;;;9.55;2.70;;;;;;;32.16;38.30;101082.09;4989976;28;20046;-70
2023/07/11 10:48:10;;;;;;;7.43;2.97;;;;;;;32.31;37.66;101081.56;4993342;28;20054;-69
2023/07/11 10:50:42;;;;;;;8.30;2.58;;;;;;;32.42;37.25;101077.91;5009270;28;20466;-69
2023/07/11 10:53:20;;;;;;;6.70;2.42;;;;;;;32.50;37.65;101088.75;5009241;28;20478;-69
2023/07/11 10:56:16;;;;;;;6.25;2.13;;;;;;;32.51;36.17;101082.03;5008296;28;20505;-69
2023/07/11 10:58:41;;;;;;;6.15;2.45;;;;;;;32.36;35.91;101084.47;4989311;28;20054;-69
2023/07/11 11:01:27;;;;;;;5.25;2.60;;;;;;;32.25;38.50;101077.78;4989618;28;20053;-70
2023/07/11 11:04:18;;;;;;;9.18;3.05;;;;;;;32.15;36.12;101071.94;4989904;28;20086;-68
2023/07/11 11:06:54;;;;;;;6.97;2.53;;;;;;;32.07;35.66;101075.13;4989646;28;20395;-69
2023/07/11 11:09:29;;;;;;;5.35;2.30;;;;;;;32.24;35.71;101071.31;4989670;28;20104;-69
2023/07/11 11:12:13;;;;;;;5.82;2.15;;;;;;;32.58;37.51;101059.31;5004669;28;20414;-69
2023/07/11 11:14:51;;;;;;;6.22;2.60;;;;;;;32.71;37.48;101059.03;4989562;28;20065;-69
2023/07/11 11:17:33;;;;;;;5.63;2.72;;;;;;;32.57;34.51;101050.03;4988333;28;20077;-69
2023/07/11 11:20:11;;;;;;;5.82;2.58;;;;;;;32.03;33.73;101045.78;5004157;28;20082;-69
2023/07/11 11:22:51;;;;;;;6.13;2.17;;;;;;;32.09;34.82;101054.09;4989632;28;20408;-69
2023/07/11 11:25:27;;;;;;;5.10;2.70;;;;;;;32.09;35.93;101056.06;4989327;28;20034;-69
2023/07/11 11:28:10;;;;;;;9.77;3.08;;;;;;;32.19;36.65;101048.69;4990170;28;20038;-69
2023/07/11 11:30:52;;;;;;;8.85;2.60;;;;;;;32.21;37.01;101042.78;4989300;28;20038;-69